sensor_id;sensor_type;location;lat;lon;timestamp;temperature;humidity
59007;DHT22;44792;52.760;6.726;2023-06-22T00:00:49;19.40;99.90
59007;DHT22;44792;52.760;6.726;2023-06-22T00:03:16;19.40;99.90
59007;DHT22;44792;52.760;6.726;2023-06-22T00:05:42;19.40;99.90
59007;DHT22;44792;52.760;6.726;2023-06-22T00:08:08;19.30;99.90
59007;DHT22;44792;52.760;6.726;2023-06-22T00:10:33;19.30;99.90
59007;DHT22;44792;52.760;6.726;2023-06-22T00:12:59;19.40;99.90
59007;DHT22;44792;52.760;6.726;2023-06-22T00:15:25;19.30;99.90
59007;DHT22;44792;52.760;6.726;2023-06-22T00:17:51;19.30;99.90
59007;DHT22;44792;52.760;6.726;2023-06-22T00:20:17;19.30;99.90
59007;DHT22;44792;52.760;6.726;2023-06-22T00:22:44;19.30;99.90
59007;DHT22;44792;52.760;6.726;2023-06-22T00:25:11;19.30;99.90
59007;DHT22;44792;52.760;6.726;2023-06-22T00:27:37;19.30;99.90
59007;DHT22;44792;52.760;6.726;2023-06-22T00:30:03;19.20;99.90
59007;DHT22;44792;52.760;6.726;2023-06-22T00:32:29;19.10;99.90
59007;DHT22;44792;52.760;6.726;2023-06-22T00:34:55;19.10;99.90
59007;DHT22;44792;52.760;6.726;2023-06-22T00:37:20;19.00;99.90
59007;DHT22;44792;52.760;6.726;2023-06-22T00:39:51;19.00;99.90
59007;DHT22;44792;52.760;6.726;2023-06-22T00:42:17;19.00;99.90
59007;DHT22;44792;52.760;6.726;2023-06-22T00:44:43;19.10;99.90
59007;DHT22;44792;52.760;6.726;2023-06-22T00:52:31;19.00;99.90
59007;DHT22;44792;52.760;6.726;2023-06-22T00:54:59;19.00;99.90
59007;DHT22;44792;52.760;6.726;2023-06-22T00:57:27;19.00;99.90
59007;DHT22;44792;52.760;6.726;2023-06-22T00:59:54;19.00;99.90
59007;DHT22;44792;52.760;6.726;2023-06-22T01:02:20;18.90;99.90
59007;DHT22;44792;52.760;6.726;2023-06-22T01:04:45;19.00;99.90
59007;DHT22;44792;52.760;6.726;2023-06-22T01:07:30;18.90;99.90
59007;DHT22;44792;52.760;6.726;2023-06-22T01:12:39;18.90;99.90
59007;DHT22;44792;52.760;6.726;2023-06-22T01:15:11;18.90;99.90
59007;DHT22;44792;52.760;6.726;2023-06-22T01:17:41;18.90;99.90
59007;DHT22;44792;52.760;6.726;2023-06-22T01:20:09;18.80;99.90
59007;DHT22;44792;52.760;6.726;2023-06-22T01:26:17;18.80;99.90
59007;DHT22;44792;52.760;6.726;2023-06-22T01:28:47;18.80;99.90
59007;DHT22;44792;52.760;6.726;2023-06-22T01:31:16;18.70;99.90
59007;DHT22;44792;52.760;6.726;2023-06-22T01:33:45;18.80;99.90
59007;DHT22;44792;52.760;6.726;2023-06-22T01:36:13;18.70;99.90
59007;DHT22;44792;52.760;6.726;2023-06-22T01:38:40;18.70;99.90
59007;DHT22;44792;52.760;6.726;2023-06-22T01:41:07;18.70;99.90
59007;DHT22;44792;52.760;6.726;2023-06-22T01:43:34;18.70;99.90
59007;DHT22;44792;52.760;6.726;2023-06-22T01:46:01;18.70;99.90
59007;DHT22;44792;52.760;6.726;2023-06-22T01:48:27;18.70;99.90
59007;DHT22;44792;52.760;6.726;2023-06-22T01:50:54;18.70;99.90
59007;DHT22;44792;52.760;6.726;2023-06-22T01:53:24;18.70;99.90
59007;DHT22;44792;52.760;6.726;2023-06-22T01:55:50;18.60;99.90
59007;DHT22;44792;52.760;6.726;2023-06-22T01:58:16;18.60;99.90
59007;DHT22;44792;52.760;6.726;2023-06-22T02:00:50;18.60;99.90
59007;DHT22;44792;52.760;6.726;2023-06-22T02:03:21;18.60;99.90
59007;DHT22;44792;52.760;6.726;2023-06-22T02:06:10;18.60;99.90
59007;DHT22;44792;52.760;6.726;2023-06-22T02:09:01;18.60;99.90
59007;DHT22;44792;52.760;6.726;2023-06-22T02:11:28;18.50;99.90
59007;DHT22;44792;52.760;6.726;2023-06-22T02:13:56;18.50;99.90
59007;DHT22;44792;52.760;6.726;2023-06-22T02:16:23;18.40;99.90
59007;DHT22;44792;52.760;6.726;2023-06-22T02:18:49;18.40;99.90
59007;DHT22;44792;52.760;6.726;2023-06-22T02:21:19;18.30;99.90
59007;DHT22;44792;52.760;6.726;2023-06-22T02:23:45;18.30;99.90
59007;DHT22;44792;52.760;6.726;2023-06-22T02:26:12;18.40;99.90
59007;DHT22;44792;52.760;6.726;2023-06-22T02:28:38;18.50;99.90
59007;DHT22;44792;52.760;6.726;2023-06-22T02:31:04;18.40;99.90
59007;DHT22;44792;52.760;6.726;2023-06-22T02:33:30;18.40;99.90
59007;DHT22;44792;52.760;6.726;2023-06-22T02:35:56;18.20;99.90
59007;DHT22;44792;52.760;6.726;2023-06-22T02:38:22;18.20;99.90
59007;DHT22;44792;52.760;6.726;2023-06-22T02:40:50;18.30;99.90
59007;DHT22;44792;52.760;6.726;2023-06-22T02:43:16;18.30;99.90
59007;DHT22;44792;52.760;6.726;2023-06-22T02:45:42;18.20;99.90
59007;DHT22;44792;52.760;6.726;2023-06-22T02:48:08;18.10;99.90
59007;DHT22;44792;52.760;6.726;2023-06-22T02:50:33;18.10;99.90
59007;DHT22;44792;52.760;6.726;2023-06-22T02:52:59;18.20;99.90
59007;DHT22;44792;52.760;6.726;2023-06-22T02:55:25;18.20;99.90
59007;DHT22;44792;52.760;6.726;2023-06-22T02:57:50;18.10;99.90
59007;DHT22;44792;52.760;6.726;2023-06-22T03:00:19;18.00;99.90
59007;DHT22;44792;52.760;6.726;2023-06-22T03:02:48;18.00;99.90
59007;DHT22;44792;52.760;6.726;2023-06-22T03:05:15;18.10;99.90
59007;DHT22;44792;52.760;6.726;2023-06-22T03:07:46;18.00;99.90
59007;DHT22;44792;52.760;6.726;2023-06-22T03:10:13;18.00;99.90
59007;DHT22;44792;52.760;6.726;2023-06-22T03:12:39;18.00;99.90
59007;DHT22;44792;52.760;6.726;2023-06-22T03:15:10;18.00;99.90
59007;DHT22;44792;52.760;6.726;2023-06-22T03:17:36;18.10;99.90
59007;DHT22;44792;52.760;6.726;2023-06-22T03:20:05;18.10;99.90
59007;DHT22;44792;52.760;6.726;2023-06-22T03:22:38;18.00;99.90
59007;DHT22;44792;52.760;6.726;2023-06-22T03:25:04;18.00;99.90
59007;DHT22;44792;52.760;6.726;2023-06-22T03:27:36;17.90;99.90
59007;DHT22;44792;52.760;6.726;2023-06-22T03:30:02;17.90;99.90
59007;DHT22;44792;52.760;6.726;2023-06-22T03:32:28;17.90;99.90
59007;DHT22;44792;52.760;6.726;2023-06-22T03:34:54;17.90;99.90
59007;DHT22;44792;52.760;6.726;2023-06-22T03:37:19;17.90;99.90
59007;DHT22;44792;52.760;6.726;2023-06-22T03:39:45;17.90;99.90
59007;DHT22;44792;52.760;6.726;2023-06-22T03:42:11;17.90;99.90
59007;DHT22;44792;52.760;6.726;2023-06-22T03:44:36;17.80;99.90
59007;DHT22;44792;52.760;6.726;2023-06-22T03:47:04;17.80;99.90
59007;DHT22;44792;52.760;6.726;2023-06-22T03:49:29;17.70;99.90
59007;DHT22;44792;52.760;6.726;2023-06-22T03:51:55;17.60;99.90
59007;DHT22;44792;52.760;6.726;2023-06-22T03:54:21;17.50;99.90
59007;DHT22;44792;52.760;6.726;2023-06-22T03:56:46;17.60;99.90
59007;DHT22;44792;52.760;6.726;2023-06-22T03:59:12;17.50;99.90
59007;DHT22;44792;52.760;6.726;2023-06-22T04:01:38;17.60;99.90
59007;DHT22;44792;52.760;6.726;2023-06-22T04:04:03;17.70;99.90
59007;DHT22;44792;52.760;6.726;2023-06-22T04:06:29;17.70;99.90
59007;DHT22;44792;52.760;6.726;2023-06-22T04:08:55;17.80;99.90
59007;DHT22;44792;52.760;6.726;2023-06-22T04:11:20;17.70;99.90
59007;DHT22;44792;52.760;6.726;2023-06-22T04:13:46;17.70;99.90
59007;DHT22;44792;52.760;6.726;2023-06-22T04:16:14;17.80;99.90
59007;DHT22;44792;52.760;6.726;2023-06-22T04:18:39;17.70;99.90
59007;DHT22;44792;52.760;6.726;2023-06-22T04:21:05;17.70;99.90
59007;DHT22;44792;52.760;6.726;2023-06-22T04:23:31;17.60;99.90
59007;DHT22;44792;52.760;6.726;2023-06-22T04:25:57;17.60;99.90
59007;DHT22;44792;52.760;6.726;2023-06-22T04:28:23;17.70;99.90
59007;DHT22;44792;52.760;6.726;2023-06-22T04:30:48;17.80;99.90
59007;DHT22;44792;52.760;6.726;2023-06-22T04:33:16;17.90;99.90
59007;DHT22;44792;52.760;6.726;2023-06-22T04:35:45;17.90;99.90
59007;DHT22;44792;52.760;6.726;2023-06-22T04:38:12;17.90;99.90
59007;DHT22;44792;52.760;6.726;2023-06-22T04:40:39;18.00;99.90
59007;DHT22;44792;52.760;6.726;2023-06-22T04:43:05;18.10;99.90
59007;DHT22;44792;52.760;6.726;2023-06-22T04:45:32;18.10;99.90
59007;DHT22;44792;52.760;6.726;2023-06-22T04:47:58;18.10;99.90
59007;DHT22;44792;52.760;6.726;2023-06-22T04:50:24;18.20;99.90
59007;DHT22;44792;52.760;6.726;2023-06-22T04:52:50;18.20;99.90
59007;DHT22;44792;52.760;6.726;2023-06-22T04:55:17;18.30;99.90
59007;DHT22;44792;52.760;6.726;2023-06-22T04:57:48;18.40;99.90
59007;DHT22;44792;52.760;6.726;2023-06-22T05:00:18;18.50;99.90
59007;DHT22;44792;52.760;6.726;2023-06-22T05:02:46;18.40;99.90
59007;DHT22;44792;52.760;6.726;2023-06-22T05:05:14;18.50;99.90
59007;DHT22;44792;52.760;6.726;2023-06-22T05:07:45;18.60;99.90
59007;DHT22;44792;52.760;6.726;2023-06-22T05:10:13;18.70;99.90
59007;DHT22;44792;52.760;6.726;2023-06-22T05:12:40;18.80;99.90
59007;DHT22;44792;52.760;6.726;2023-06-22T05:15:07;18.80;99.90
59007;DHT22;44792;52.760;6.726;2023-06-22T05:17:32;19.00;99.90
59007;DHT22;44792;52.760;6.726;2023-06-22T05:19:58;19.00;99.90
59007;DHT22;44792;52.760;6.726;2023-06-22T05:22:24;19.10;99.90
59007;DHT22;44792;52.760;6.726;2023-06-22T05:24:50;19.20;99.90
59007;DHT22;44792;52.760;6.726;2023-06-22T05:27:15;19.30;99.90
59007;DHT22;44792;52.760;6.726;2023-06-22T05:29:41;19.30;99.90
59007;DHT22;44792;52.760;6.726;2023-06-22T05:32:10;19.50;99.90
59007;DHT22;44792;52.760;6.726;2023-06-22T05:34:36;19.60;99.90
59007;DHT22;44792;52.760;6.726;2023-06-22T05:37:02;19.60;99.90
59007;DHT22;44792;52.760;6.726;2023-06-22T05:39:28;19.60;99.90
59007;DHT22;44792;52.760;6.726;2023-06-22T05:41:54;19.70;99.90
59007;DHT22;44792;52.760;6.726;2023-06-22T05:44:19;19.80;99.90
59007;DHT22;44792;52.760;6.726;2023-06-22T05:46:45;19.90;99.90
59007;DHT22;44792;52.760;6.726;2023-06-22T05:49:15;19.90;99.90
59007;DHT22;44792;52.760;6.726;2023-06-22T05:51:41;19.90;99.90
59007;DHT22;44792;52.760;6.726;2023-06-22T05:54:07;19.90;99.90
59007;DHT22;44792;52.760;6.726;2023-06-22T05:56:35;19.90;99.90
59007;DHT22;44792;52.760;6.726;2023-06-22T05:59:01;20.00;99.90
59007;DHT22;44792;52.760;6.726;2023-06-22T06:01:27;20.00;99.90
59007;DHT22;44792;52.760;6.726;2023-06-22T06:03:53;20.00;99.90
59007;DHT22;44792;52.760;6.726;2023-06-22T06:06:19;20.10;99.90
59007;DHT22;44792;52.760;6.726;2023-06-22T06:08:54;20.20;99.90
59007;DHT22;44792;52.760;6.726;2023-06-22T06:11:20;20.20;99.90
59007;DHT22;44792;52.760;6.726;2023-06-22T06:13:46;19.90;99.90
59007;DHT22;44792;52.760;6.726;2023-06-22T06:16:12;19.80;99.90
59007;DHT22;44792;52.760;6.726;2023-06-22T06:18:38;19.90;99.90
59007;DHT22;44792;52.760;6.726;2023-06-22T06:21:04;20.10;99.90
59007;DHT22;44792;52.760;6.726;2023-06-22T06:23:29;20.10;99.90
59007;DHT22;44792;52.760;6.726;2023-06-22T06:25:55;20.20;99.90
59007;DHT22;44792;52.760;6.726;2023-06-22T06:28:22;20.20;99.90
59007;DHT22;44792;52.760;6.726;2023-06-22T06:30:47;20.30;99.90
59007;DHT22;44792;52.760;6.726;2023-06-22T06:33:13;20.20;99.90
59007;DHT22;44792;52.760;6.726;2023-06-22T06:35:39;20.30;99.90
59007;DHT22;44792;52.760;6.726;2023-06-22T06:38:05;20.40;99.90
59007;DHT22;44792;52.760;6.726;2023-06-22T06:40:30;20.30;99.90
59007;DHT22;44792;52.760;6.726;2023-06-22T06:42:56;20.40;99.90
59007;DHT22;44792;52.760;6.726;2023-06-22T06:45:23;20.40;99.90
59007;DHT22;44792;52.760;6.726;2023-06-22T06:47:50;20.40;99.90
59007;DHT22;44792;52.760;6.726;2023-06-22T06:50:16;20.40;99.90
59007;DHT22;44792;52.760;6.726;2023-06-22T06:52:42;20.50;99.90
59007;DHT22;44792;52.760;6.726;2023-06-22T06:55:09;20.50;99.90
59007;DHT22;44792;52.760;6.726;2023-06-22T06:57:39;20.60;99.90
59007;DHT22;44792;52.760;6.726;2023-06-22T07:00:06;20.60;99.90
59007;DHT22;44792;52.760;6.726;2023-06-22T07:02:35;20.70;99.90
59007;DHT22;44792;52.760;6.726;2023-06-22T07:05:01;20.80;99.90
59007;DHT22;44792;52.760;6.726;2023-06-22T07:07:30;20.90;99.90
59007;DHT22;44792;52.760;6.726;2023-06-22T07:09:55;21.00;99.90
59007;DHT22;44792;52.760;6.726;2023-06-22T07:12:21;21.00;99.90
59007;DHT22;44792;52.760;6.726;2023-06-22T07:14:47;21.00;99.90
59007;DHT22;44792;52.760;6.726;2023-06-22T07:17:12;21.00;99.90
59007;DHT22;44792;52.760;6.726;2023-06-22T07:19:38;21.10;99.90
59007;DHT22;44792;52.760;6.726;2023-06-22T07:22:04;21.10;99.90
59007;DHT22;44792;52.760;6.726;2023-06-22T07:24:30;21.20;99.90
59007;DHT22;44792;52.760;6.726;2023-06-22T07:26:57;21.30;99.90
59007;DHT22;44792;52.760;6.726;2023-06-22T07:29:24;21.10;99.90
59007;DHT22;44792;52.760;6.726;2023-06-22T07:31:50;21.20;99.90
59007;DHT22;44792;52.760;6.726;2023-06-22T07:34:21;21.20;99.90
59007;DHT22;44792;52.760;6.726;2023-06-22T07:36:47;21.30;99.90
59007;DHT22;44792;52.760;6.726;2023-06-22T07:39:13;21.50;99.90
59007;DHT22;44792;52.760;6.726;2023-06-22T07:41:40;21.60;99.90
59007;DHT22;44792;52.760;6.726;2023-06-22T07:44:09;21.60;99.90
59007;DHT22;44792;52.760;6.726;2023-06-22T07:46:34;21.60;99.90
59007;DHT22;44792;52.760;6.726;2023-06-22T07:49:00;21.70;99.90
59007;DHT22;44792;52.760;6.726;2023-06-22T07:51:27;21.70;99.90
59007;DHT22;44792;52.760;6.726;2023-06-22T07:53:52;21.80;99.90
59007;DHT22;44792;52.760;6.726;2023-06-22T07:56:18;21.80;99.90
59007;DHT22;44792;52.760;6.726;2023-06-22T07:58:46;21.80;99.90
59007;DHT22;44792;52.760;6.726;2023-06-22T08:01:13;21.90;99.90
59007;DHT22;44792;52.760;6.726;2023-06-22T08:03:39;22.00;99.90
59007;DHT22;44792;52.760;6.726;2023-06-22T08:06:05;21.90;99.90
59007;DHT22;44792;52.760;6.726;2023-06-22T08:08:33;22.00;99.90
59007;DHT22;44792;52.760;6.726;2023-06-22T08:10:59;22.10;99.90
59007;DHT22;44792;52.760;6.726;2023-06-22T08:13:25;22.00;99.90
59007;DHT22;44792;52.760;6.726;2023-06-22T08:15:51;22.10;99.90
59007;DHT22;44792;52.760;6.726;2023-06-22T08:18:16;22.20;99.90
59007;DHT22;44792;52.760;6.726;2023-06-22T08:20:42;22.30;99.90
59007;DHT22;44792;52.760;6.726;2023-06-22T08:23:08;22.30;99.90
59007;DHT22;44792;52.760;6.726;2023-06-22T08:25:34;22.40;99.90
59007;DHT22;44792;52.760;6.726;2023-06-22T08:28:01;22.40;99.90
59007;DHT22;44792;52.760;6.726;2023-06-22T08:30:27;22.50;99.90
59007;DHT22;44792;52.760;6.726;2023-06-22T08:32:52;22.50;99.90
59007;DHT22;44792;52.760;6.726;2023-06-22T08:35:20;22.60;99.90
59007;DHT22;44792;52.760;6.726;2023-06-22T08:37:46;22.60;99.90
59007;DHT22;44792;52.760;6.726;2023-06-22T08:40:16;22.70;99.90
59007;DHT22;44792;52.760;6.726;2023-06-22T08:42:41;22.70;99.90
59007;DHT22;44792;52.760;6.726;2023-06-22T08:45:08;22.60;99.90
59007;DHT22;44792;52.760;6.726;2023-06-22T08:47:33;22.80;99.90
59007;DHT22;44792;52.760;6.726;2023-06-22T08:49:59;22.90;99.90
59007;DHT22;44792;52.760;6.726;2023-06-22T08:52:27;22.90;99.90
59007;DHT22;44792;52.760;6.726;2023-06-22T08:54:53;23.00;99.90
59007;DHT22;44792;52.760;6.726;2023-06-22T08:57:18;23.10;99.90
59007;DHT22;44792;52.760;6.726;2023-06-22T08:59:44;23.10;99.90
59007;DHT22;44792;52.760;6.726;2023-06-22T09:02:10;23.20;99.90
59007;DHT22;44792;52.760;6.726;2023-06-22T09:04:35;23.30;99.90
59007;DHT22;44792;52.760;6.726;2023-06-22T09:07:01;23.40;99.90
59007;DHT22;44792;52.760;6.726;2023-06-22T09:09:27;23.50;99.90
59007;DHT22;44792;52.760;6.726;2023-06-22T09:11:53;23.40;99.90
59007;DHT22;44792;52.760;6.726;2023-06-22T09:14:19;23.40;99.90
59007;DHT22;44792;52.760;6.726;2023-06-22T09:16:44;23.50;99.90
59007;DHT22;44792;52.760;6.726;2023-06-22T09:19:10;23.60;99.90
59007;DHT22;44792;52.760;6.726;2023-06-22T09:21:36;23.70;99.90
59007;DHT22;44792;52.760;6.726;2023-06-22T09:24:02;23.80;99.90
59007;DHT22;44792;52.760;6.726;2023-06-22T09:26:28;23.90;99.90
59007;DHT22;44792;52.760;6.726;2023-06-22T09:28:54;23.90;99.90
59007;DHT22;44792;52.760;6.726;2023-06-22T09:31:20;24.10;99.90
59007;DHT22;44792;52.760;6.726;2023-06-22T09:33:54;24.10;99.90
59007;DHT22;44792;52.760;6.726;2023-06-22T09:36:21;24.10;99.90
59007;DHT22;44792;52.760;6.726;2023-06-22T09:38:47;24.10;99.90
59007;DHT22;44792;52.760;6.726;2023-06-22T09:41:13;24.10;99.90
59007;DHT22;44792;52.760;6.726;2023-06-22T09:43:39;24.10;99.90
59007;DHT22;44792;52.760;6.726;2023-06-22T09:46:04;24.30;99.90
59007;DHT22;44792;52.760;6.726;2023-06-22T09:48:32;24.20;99.90
59007;DHT22;44792;52.760;6.726;2023-06-22T09:50:58;24.10;99.90
59007;DHT22;44792;52.760;6.726;2023-06-22T09:53:24;24.10;99.90
59007;DHT22;44792;52.760;6.726;2023-06-22T09:55:49;24.00;99.90
59007;DHT22;44792;52.760;6.726;2023-06-22T09:58:15;24.00;99.90
59007;DHT22;44792;52.760;6.726;2023-06-22T10:00:41;24.00;99.90
59007;DHT22;44792;52.760;6.726;2023-06-22T10:03:09;24.00;99.90
59007;DHT22;44792;52.760;6.726;2023-06-22T10:05:35;24.00;99.90
59007;DHT22;44792;52.760;6.726;2023-06-22T10:08:01;24.00;99.90
59007;DHT22;44792;52.760;6.726;2023-06-22T10:10:26;24.20;99.90
59007;DHT22;44792;52.760;6.726;2023-06-22T10:12:57;24.20;99.90
59007;DHT22;44792;52.760;6.726;2023-06-22T10:15:23;24.40;99.90
59007;DHT22;44792;52.760;6.726;2023-06-22T10:17:49;24.40;99.90
59007;DHT22;44792;52.760;6.726;2023-06-22T10:20:15;24.50;99.90
59007;DHT22;44792;52.760;6.726;2023-06-22T10:22:43;24.60;99.90
59007;DHT22;44792;52.760;6.726;2023-06-22T10:25:11;24.60;99.90
59007;DHT22;44792;52.760;6.726;2023-06-22T10:27:37;24.70;99.90
59007;DHT22;44792;52.760;6.726;2023-06-22T10:30:09;24.60;99.90
59007;DHT22;44792;52.760;6.726;2023-06-22T10:32:35;24.70;99.90
59007;DHT22;44792;52.760;6.726;2023-06-22T10:35:02;24.80;99.90
59007;DHT22;44792;52.760;6.726;2023-06-22T10:37:28;24.70;99.90
59007;DHT22;44792;52.760;6.726;2023-06-22T10:39:53;24.70;99.90
59007;DHT22;44792;52.760;6.726;2023-06-22T10:42:19;24.80;99.90
59007;DHT22;44792;52.760;6.726;2023-06-22T10:44:45;24.90;99.90
59007;DHT22;44792;52.760;6.726;2023-06-22T10:47:11;24.80;99.90
59007;DHT22;44792;52.760;6.726;2023-06-22T10:49:41;24.90;99.90
59007;DHT22;44792;52.760;6.726;2023-06-22T10:52:07;24.90;99.90
59007;DHT22;44792;52.760;6.726;2023-06-22T10:54:34;25.00;99.90
59007;DHT22;44792;52.760;6.726;2023-06-22T10:57:01;25.00;99.90
59007;DHT22;44792;52.760;6.726;2023-06-22T10:59:27;25.10;99.90
59007;DHT22;44792;52.760;6.726;2023-06-22T11:01:55;25.10;99.90
59007;DHT22;44792;52.760;6.726;2023-06-22T11:04:21;25.10;99.90
59007;DHT22;44792;52.760;6.726;2023-06-22T11:06:48;25.10;99.90
59007;DHT22;44792;52.760;6.726;2023-06-22T11:09:14;25.20;99.90
59007;DHT22;44792;52.760;6.726;2023-06-22T11:11:44;25.20;99.90
59007;DHT22;44792;52.760;6.726;2023-06-22T11:14:10;25.20;99.90
59007;DHT22;44792;52.760;6.726;2023-06-22T11:16:36;25.20;99.90
59007;DHT22;44792;52.760;6.726;2023-06-22T11:19:04;25.20;99.90
59007;DHT22;44792;52.760;6.726;2023-06-22T11:21:30;25.10;99.90
59007;DHT22;44792;52.760;6.726;2023-06-22T11:23:57;25.20;99.90
59007;DHT22;44792;52.760;6.726;2023-06-22T11:26:23;25.20;99.90
59007;DHT22;44792;52.760;6.726;2023-06-22T11:28:48;25.20;99.90
59007;DHT22;44792;52.760;6.726;2023-06-22T11:31:14;25.20;99.90
59007;DHT22;44792;52.760;6.726;2023-06-22T11:33:40;25.20;99.90
59007;DHT22;44792;52.760;6.726;2023-06-22T11:36:06;25.30;99.90
59007;DHT22;44792;52.760;6.726;2023-06-22T11:38:31;25.30;99.90
59007;DHT22;44792;52.760;6.726;2023-06-22T11:40:58;25.30;99.90
59007;DHT22;44792;52.760;6.726;2023-06-22T11:43:24;25.30;99.90
59007;DHT22;44792;52.760;6.726;2023-06-22T11:45:50;25.30;99.90
59007;DHT22;44792;52.760;6.726;2023-06-22T11:48:16;25.30;99.90
59007;DHT22;44792;52.760;6.726;2023-06-22T11:50:42;25.20;99.90
59007;DHT22;44792;52.760;6.726;2023-06-22T11:53:07;25.20;99.90
59007;DHT22;44792;52.760;6.726;2023-06-22T11:55:33;25.20;99.90
59007;DHT22;44792;52.760;6.726;2023-06-22T11:57:59;25.20;99.90
59007;DHT22;44792;52.760;6.726;2023-06-22T12:00:27;25.20;99.90
59007;DHT22;44792;52.760;6.726;2023-06-22T12:02:53;25.20;99.90
59007;DHT22;44792;52.760;6.726;2023-06-22T12:05:19;25.20;99.90
59007;DHT22;44792;52.760;6.726;2023-06-22T12:07:46;25.30;99.90
59007;DHT22;44792;52.760;6.726;2023-06-22T12:10:12;25.30;99.90
59007;DHT22;44792;52.760;6.726;2023-06-22T12:12:38;25.40;99.90
59007;DHT22;44792;52.760;6.726;2023-06-22T12:15:04;25.40;99.90
59007;DHT22;44792;52.760;6.726;2023-06-22T12:17:30;25.50;99.90
59007;DHT22;44792;52.760;6.726;2023-06-22T12:19:56;25.40;99.90
59007;DHT22;44792;52.760;6.726;2023-06-22T12:22:21;25.40;99.90
59007;DHT22;44792;52.760;6.726;2023-06-22T12:24:47;25.40;99.90
59007;DHT22;44792;52.760;6.726;2023-06-22T12:27:13;25.30;99.90
59007;DHT22;44792;52.760;6.726;2023-06-22T12:29:41;25.40;99.90
59007;DHT22;44792;52.760;6.726;2023-06-22T12:32:07;25.40;99.90
59007;DHT22;44792;52.760;6.726;2023-06-22T12:34:33;25.40;99.90
59007;DHT22;44792;52.760;6.726;2023-06-22T12:36:59;25.30;99.90
59007;DHT22;44792;52.760;6.726;2023-06-22T12:39:24;25.40;99.90
59007;DHT22;44792;52.760;6.726;2023-06-22T12:41:50;25.30;99.90
59007;DHT22;44792;52.760;6.726;2023-06-22T12:44:16;25.40;99.90
59007;DHT22;44792;52.760;6.726;2023-06-22T12:46:42;25.30;99.90
59007;DHT22;44792;52.760;6.726;2023-06-22T12:49:08;25.30;99.90
59007;DHT22;44792;52.760;6.726;2023-06-22T12:51:39;25.30;99.90
59007;DHT22;44792;52.760;6.726;2023-06-22T12:54:04;25.30;99.90
59007;DHT22;44792;52.760;6.726;2023-06-22T12:56:30;25.20;99.90
59007;DHT22;44792;52.760;6.726;2023-06-22T12:58:56;25.20;99.90
59007;DHT22;44792;52.760;6.726;2023-06-22T13:01:22;25.20;99.90
59007;DHT22;44792;52.760;6.726;2023-06-22T13:03:48;25.10;99.90
59007;DHT22;44792;52.760;6.726;2023-06-22T13:06:14;25.10;99.90
59007;DHT22;44792;52.760;6.726;2023-06-22T13:08:39;25.00;99.90
59007;DHT22;44792;52.760;6.726;2023-06-22T13:11:05;25.00;99.90
59007;DHT22;44792;52.760;6.726;2023-06-22T13:13:31;25.00;99.90
59007;DHT22;44792;52.760;6.726;2023-06-22T13:15:59;25.00;99.90
59007;DHT22;44792;52.760;6.726;2023-06-22T13:18:25;25.00;99.90
59007;DHT22;44792;52.760;6.726;2023-06-22T13:20:50;25.00;99.90
59007;DHT22;44792;52.760;6.726;2023-06-22T13:23:16;25.00;99.90
59007;DHT22;44792;52.760;6.726;2023-06-22T13:25:42;25.00;99.90
59007;DHT22;44792;52.760;6.726;2023-06-22T13:28:07;24.90;99.90
59007;DHT22;44792;52.760;6.726;2023-06-22T13:30:33;24.90;99.90
59007;DHT22;44792;52.760;6.726;2023-06-22T13:32:59;24.90;99.90
59007;DHT22;44792;52.760;6.726;2023-06-22T13:35:25;24.90;99.90
59007;DHT22;44792;52.760;6.726;2023-06-22T13:37:50;24.90;99.90
59007;DHT22;44792;52.760;6.726;2023-06-22T13:40:16;24.90;99.90
59007;DHT22;44792;52.760;6.726;2023-06-22T13:42:42;24.90;99.90
59007;DHT22;44792;52.760;6.726;2023-06-22T13:45:08;24.90;99.90
59007;DHT22;44792;52.760;6.726;2023-06-22T13:47:33;24.80;99.90
59007;DHT22;44792;52.760;6.726;2023-06-22T13:49:59;24.80;99.90
59007;DHT22;44792;52.760;6.726;2023-06-22T13:52:25;24.80;99.90
59007;DHT22;44792;52.760;6.726;2023-06-22T13:54:51;24.80;99.90
59007;DHT22;44792;52.760;6.726;2023-06-22T13:57:17;24.70;99.90
59007;DHT22;44792;52.760;6.726;2023-06-22T13:59:42;24.70;99.90
59007;DHT22;44792;52.760;6.726;2023-06-22T14:02:08;24.70;99.90
59007;DHT22;44792;52.760;6.726;2023-06-22T14:04:34;24.70;99.90
59007;DHT22;44792;52.760;6.726;2023-06-22T14:06:59;24.70;99.90
59007;DHT22;44792;52.760;6.726;2023-06-22T14:09:25;24.60;99.90
59007;DHT22;44792;52.760;6.726;2023-06-22T14:11:51;24.60;99.90
59007;DHT22;44792;52.760;6.726;2023-06-22T14:14:16;24.60;99.90
59007;DHT22;44792;52.760;6.726;2023-06-22T14:16:42;24.60;99.90
59007;DHT22;44792;52.760;6.726;2023-06-22T14:19:08;24.60;99.90
59007;DHT22;44792;52.760;6.726;2023-06-22T14:21:33;24.60;99.90
59007;DHT22;44792;52.760;6.726;2023-06-22T14:23:59;24.50;99.90
59007;DHT22;44792;52.760;6.726;2023-06-22T14:26:25;24.50;99.90
59007;DHT22;44792;52.760;6.726;2023-06-22T14:28:51;24.50;99.90
59007;DHT22;44792;52.760;6.726;2023-06-22T14:31:19;24.50;99.90
59007;DHT22;44792;52.760;6.726;2023-06-22T14:33:49;24.40;99.90
59007;DHT22;44792;52.760;6.726;2023-06-22T14:36:18;24.40;99.90
59007;DHT22;44792;52.760;6.726;2023-06-22T14:38:44;24.30;99.90
59007;DHT22;44792;52.760;6.726;2023-06-22T14:41:10;24.30;99.90
59007;DHT22;44792;52.760;6.726;2023-06-22T14:43:35;24.20;99.90
59007;DHT22;44792;52.760;6.726;2023-06-22T14:46:01;24.20;99.90
59007;DHT22;44792;52.760;6.726;2023-06-22T14:48:27;24.10;99.90
59007;DHT22;44792;52.760;6.726;2023-06-22T14:50:53;24.10;99.90
59007;DHT22;44792;52.760;6.726;2023-06-22T14:53:19;24.00;99.90
59007;DHT22;44792;52.760;6.726;2023-06-22T14:55:45;24.00;99.90
59007;DHT22;44792;52.760;6.726;2023-06-22T14:58:11;23.90;99.90
59007;DHT22;44792;52.760;6.726;2023-06-22T15:00:37;23.90;99.90
59007;DHT22;44792;52.760;6.726;2023-06-22T15:03:04;23.80;99.90
59007;DHT22;44792;52.760;6.726;2023-06-22T15:05:32;23.80;99.90
59007;DHT22;44792;52.760;6.726;2023-06-22T15:07:59;23.70;99.90
59007;DHT22;44792;52.760;6.726;2023-06-22T15:10:24;23.70;99.90
59007;DHT22;44792;52.760;6.726;2023-06-22T15:12:50;23.60;99.90
59007;DHT22;44792;52.760;6.726;2023-06-22T15:15:16;23.50;99.90
59007;DHT22;44792;52.760;6.726;2023-06-22T15:17:42;23.40;99.90
59007;DHT22;44792;52.760;6.726;2023-06-22T15:20:08;23.30;99.90
59007;DHT22;44792;52.760;6.726;2023-06-22T15:22:33;23.30;99.90
59007;DHT22;44792;52.760;6.726;2023-06-22T15:24:59;23.20;99.90
59007;DHT22;44792;52.760;6.726;2023-06-22T15:27:25;23.10;99.90
59007;DHT22;44792;52.760;6.726;2023-06-22T15:29:50;23.00;99.90
59007;DHT22;44792;52.760;6.726;2023-06-22T15:32:16;22.80;99.90
59007;DHT22;44792;52.760;6.726;2023-06-22T15:34:42;22.80;99.90
59007;DHT22;44792;52.760;6.726;2023-06-22T15:37:07;22.80;99.90